createdAt,value
2022-12-14T00:04:44.341Z,98430.19
2022-12-14T00:09:48.616Z,98418.66
2022-12-14T00:14:51.528Z,98405.13
2022-12-14T00:19:54.957Z,98404.72
2022-12-14T00:24:59.500Z,98408.50
2022-12-14T00:30:02.506Z,98411.63
2022-12-14T00:35:06.125Z,98405.06
2022-12-14T00:40:11.682Z,98396.91
2022-12-14T00:45:14.656Z,98396.28
2022-12-14T00:50:17.811Z,98394.78
2022-12-14T00:55:22.073Z,98384.16
2022-12-14T01:00:25.023Z,98387.13
2022-12-14T01:05:27.950Z,98389.34
2022-12-14T01:10:32.261Z,98388.41
2022-12-14T01:15:36.126Z,98384.13
2022-12-14T01:20:39.066Z,98378.81
2022-12-14T01:25:43.368Z,98361.88
2022-12-14T01:30:46.381Z,98354.06
2022-12-14T01:35:49.273Z,98351.19
2022-12-14T01:40:58.390Z,98347.94
2022-12-14T01:46:01.360Z,98354.22
2022-12-14T01:51:04.363Z,98353.72
2022-12-14T01:56:09.013Z,98350.41
2022-12-14T02:01:12.575Z,98345.28
2022-12-14T02:06:20.180Z,98350.69
2022-12-14T02:11:32.566Z,98359.50
2022-12-14T02:16:37.016Z,98364.09
2022-12-14T02:22:07.991Z,98344.28
2022-12-14T02:27:27.507Z,98343.66
2022-12-14T02:32:48.839Z,98340.94
2022-12-14T02:38:01.956Z,98333.81
2022-12-14T02:43:15.533Z,98325.97
2022-12-14T02:48:24.116Z,98333.81
2022-12-14T02:53:33.050Z,98310.88
2022-12-14T02:58:40.076Z,98317.16
2022-12-14T03:03:44.596Z,98314.38
2022-12-14T03:08:48.427Z,98305.09
2022-12-14T03:13:56.975Z,98306.91
2022-12-14T03:19:07.358Z,98294.91
2022-12-14T03:24:13.624Z,98283.75
2022-12-14T03:29:22.194Z,98269.25
2022-12-14T03:34:36.883Z,98267.97
2022-12-14T03:39:42.970Z,98258.81
2022-12-14T03:44:56.981Z,98250.97
2022-12-14T03:50:04.706Z,98256.09
2022-12-14T03:55:19.364Z,98252.88
2022-12-14T04:00:25.291Z,98251.50
2022-12-14T04:05:42.888Z,98236.88
2022-12-14T04:11:11.303Z,98243.59
2022-12-14T04:16:50.358Z,98234.06
2022-12-14T04:21:57.674Z,98232.00
2022-12-14T04:27:06.614Z,98218.59
2022-12-14T04:32:14.667Z,98214.53
2022-12-14T04:37:23.587Z,98199.63
2022-12-14T04:42:30.536Z,98197.91
2022-12-14T04:47:38.446Z,98191.19
2022-12-14T04:52:48.910Z,98183.22
2022-12-14T04:57:56.426Z,98170.13
2022-12-14T05:03:17.899Z,98169.34
2022-12-14T05:08:31.327Z,98159.50
2022-12-14T05:13:40.126Z,98150.81
2022-12-14T05:18:44.563Z,98140.50
2022-12-14T05:23:48.792Z,98135.31
2022-12-14T05:28:51.699Z,98133.78
2022-12-14T05:33:54.560Z,98123.34
2022-12-14T05:38:58.847Z,98117.63
2022-12-14T05:44:01.794Z,98112.69
2022-12-14T05:49:04.955Z,98114.94
2022-12-14T05:54:09.175Z,98108.88
2022-12-14T05:59:15.556Z,98090.88
2022-12-14T06:04:19.167Z,98087.06
2022-12-14T06:09:23.837Z,98076.88
2022-12-14T06:14:26.938Z,98079.19
2022-12-14T06:19:30.811Z,98085.13
2022-12-14T06:24:35.070Z,98083.34
2022-12-14T06:29:38.021Z,98098.84
2022-12-14T06:34:42.531Z,98091.06
2022-12-14T06:39:53.970Z,98067.03
2022-12-14T06:44:57.360Z,98062.84
2022-12-14T06:50:00.370Z,98054.44
2022-12-14T06:55:05.152Z,98058.44
2022-12-14T07:00:12.195Z,98046.09
2022-12-14T07:05:16.042Z,98048.00
2022-12-14T07:10:20.511Z,98046.63
2022-12-14T07:15:23.416Z,98048.41
2022-12-14T07:20:26.309Z,98031.63
2022-12-14T07:25:30.557Z,98031.94
2022-12-14T07:30:33.497Z,98024.13
2022-12-14T07:35:36.380Z,98029.53
2022-12-14T07:40:40.626Z,98021.31
2022-12-14T07:45:43.535Z,98022.28
2022-12-14T07:50:46.481Z,98019.31
2022-12-14T07:55:50.805Z,98011.38
2022-12-14T08:00:53.680Z,98005.06
2022-12-14T08:05:58.316Z,97992.94
2022-12-14T08:11:03.001Z,97991.34
2022-12-14T08:16:07.368Z,97983.63
2022-12-14T08:21:12.385Z,97978.34
2022-12-14T08:26:17.049Z,97968.16
2022-12-14T08:31:21.725Z,97962.88
2022-12-14T08:36:26.817Z,97956.84
2022-12-14T08:41:31.493Z,97957.34
2022-12-14T08:46:35.750Z,97948.41
2022-12-14T08:51:39.005Z,97942.91
2022-12-14T08:56:43.262Z,97928.00
2022-12-14T09:01:46.254Z,97916.66
2022-12-14T09:06:49.314Z,97913.28
2022-12-14T09:11:53.788Z,97900.75
2022-12-14T09:16:56.708Z,97903.69
2022-12-14T09:21:59.675Z,97898.09
2022-12-14T09:27:04.409Z,97879.16
2022-12-14T09:32:07.375Z,97863.72
2022-12-14T09:37:10.301Z,97859.53
2022-12-14T09:42:35.581Z,97846.16
2022-12-14T09:47:44.280Z,97850.91
2022-12-14T09:52:49.930Z,97832.63
2022-12-14T09:57:59.712Z,97818.53
2022-12-14T10:03:26.087Z,97800.72
2022-12-14T10:08:36.508Z,97809.88
2022-12-14T10:13:52.389Z,97804.72
2022-12-14T10:19:18.172Z,97805.53
2022-12-14T10:24:26.660Z,97801.81
2022-12-14T10:29:36.335Z,97800.38
2022-12-14T10:34:42.451Z,97785.44
2022-12-14T10:39:54.511Z,97757.97
2022-12-14T10:50:43.117Z,97776.31
2022-12-14T10:55:56.970Z,97771.81
2022-12-14T11:01:01.375Z,97762.34
2022-12-14T11:06:13.242Z,97752.09
2022-12-14T11:11:20.015Z,97752.41
2022-12-14T11:16:36.511Z,97742.94
2022-12-14T11:21:40.533Z,97739.19
2022-12-14T11:26:44.796Z,97728.47
2022-12-14T11:31:52.510Z,97724.28
2022-12-14T11:36:55.449Z,97727.63
2022-12-14T11:42:02.662Z,97729.63
2022-12-14T11:47:13.726Z,97723.72
2022-12-14T11:52:19.830Z,97701.50
2022-12-14T11:57:31.679Z,97706.44
2022-12-14T12:02:38.840Z,97711.00
2022-12-14T12:07:46.283Z,97701.50
2022-12-14T12:12:54.199Z,97701.06
2022-12-14T12:18:03.702Z,97699.75
2022-12-14T12:23:15.357Z,97689.03
2022-12-14T12:28:23.139Z,97671.69
2022-12-14T12:33:35.763Z,97675.13
2022-12-14T12:38:49.925Z,97671.94
2022-12-14T12:43:56.831Z,97670.59
2022-12-14T12:49:06.003Z,97668.44
2022-12-14T12:54:15.537Z,97676.06
2022-12-14T12:59:21.337Z,97691.47
2022-12-14T13:04:33.237Z,97677.13
2022-12-14T13:09:42.460Z,97675.03
2022-12-14T13:14:49.859Z,97669.63
2022-12-14T13:19:57.575Z,97657.53
2022-12-14T13:25:06.520Z,97655.38
2022-12-14T13:30:25.723Z,97655.47
2022-12-14T13:35:43.911Z,97631.25
2022-12-14T13:41:08.954Z,97631.16
2022-12-14T13:46:21.366Z,97643.97
2022-12-14T13:51:30.677Z,97633.09
2022-12-14T13:56:38.425Z,97625.03
2022-12-14T14:01:57.947Z,97616.91
2022-12-14T14:07:33.997Z,97619.44
2022-12-14T14:12:44.520Z,97606.69
2022-12-14T14:17:49.724Z,97624.44
2022-12-14T14:23:25.730Z,97628.00
2022-12-14T14:28:31.722Z,97617.66
2022-12-14T14:33:46.015Z,97624.72
2022-12-14T14:38:50.934Z,97637.63
2022-12-14T14:43:59.352Z,97637.59
2022-12-14T14:49:02.427Z,97634.09
2022-12-14T14:55:06.956Z,97645.25
2022-12-14T15:00:02.872Z,97646.72
2022-12-14T15:10:33.540Z,97631.47
2022-12-14T15:15:41.230Z,97627.72
2022-12-14T15:20:54.647Z,97629.16
2022-12-14T15:25:59.830Z,97631.41
2022-12-14T15:31:05.089Z,97625.31
2022-12-14T15:36:13.660Z,97626.53
2022-12-14T15:41:18.921Z,97613.81
2022-12-14T15:46:28.864Z,97616.09
2022-12-14T15:51:34.243Z,97608.16
2022-12-14T15:56:39.924Z,97609.25
2022-12-14T16:01:53.744Z,97620.47
2022-12-14T16:07:09.036Z,97612.91
2022-12-14T16:12:20.974Z,97622.47
2022-12-14T16:17:30.053Z,97614.94
2022-12-14T16:22:34.356Z,97618.75
2022-12-14T16:27:40.052Z,97631.25
2022-12-14T16:32:44.642Z,97634.63
2022-12-14T16:37:56.409Z,97629.50
2022-12-14T16:42:59.344Z,97633.16
2022-12-14T16:48:09.021Z,97632.00
2022-12-14T16:53:17.516Z,97632.91
2022-12-14T16:58:20.428Z,97634.19
2022-12-14T17:03:25.114Z,97622.16
2022-12-14T17:08:28.578Z,97623.31
2022-12-14T17:13:31.886Z,97626.88
2022-12-14T17:18:40.225Z,97628.97
2022-12-14T17:23:45.050Z,97636.69
2022-12-14T17:28:48.049Z,97640.72
2022-12-14T17:33:54.059Z,97643.16
2022-12-14T17:38:57.013Z,97638.50
2022-12-14T17:44:00.075Z,97644.59
2022-12-14T17:49:06.889Z,97650.06
2022-12-14T17:54:15.203Z,97656.19
2022-12-14T17:59:18.102Z,97662.59
2022-12-14T18:04:22.415Z,97660.38
2022-12-14T18:09:25.288Z,97650.44
2022-12-14T18:14:28.165Z,97650.72
2022-12-14T18:19:32.496Z,97664.22
2022-12-14T18:24:35.477Z,97674.50
2022-12-14T18:29:38.901Z,97676.72
2022-12-14T18:34:43.282Z,97676.41
2022-12-14T18:39:46.273Z,97683.78
2022-12-14T18:44:52.549Z,97683.78
2022-12-14T18:49:57.846Z,97692.75
2022-12-14T18:55:00.842Z,97694.69
2022-12-14T19:00:04.624Z,97699.63
2022-12-14T19:05:09.806Z,97700.59
2022-12-14T19:10:17.659Z,97707.66
2022-12-14T19:15:22.736Z,97714.09
2022-12-14T19:20:27.944Z,97713.13
2022-12-14T19:25:31.082Z,97723.88
2022-12-14T19:30:34.731Z,97727.69
2022-12-14T19:35:40.531Z,97732.22
2022-12-14T19:40:46.241Z,97741.50
2022-12-14T19:45:49.165Z,97740.69
2022-12-14T19:50:53.603Z,97738.94
2022-12-14T19:55:56.544Z,97738.44
2022-12-14T20:00:59.445Z,97741.81
2022-12-14T20:06:05.214Z,97748.88
2022-12-14T20:11:10.081Z,97749.03
2022-12-14T20:16:17.061Z,97752.41
2022-12-14T20:21:23.085Z,97753.69
2022-12-14T20:26:27.515Z,97753.84
2022-12-14T20:31:30.431Z,97762.81
2022-12-14T20:36:34.955Z,97753.66
2022-12-14T20:41:37.876Z,97756.22
2022-12-14T20:46:42.277Z,97755.47
2022-12-14T20:51:47.539Z,97764.66
2022-12-14T20:56:50.497Z,97767.03
2022-12-14T21:01:56.204Z,97774.53
2022-12-14T21:07:01.063Z,97787.94
2022-12-14T21:12:22.076Z,97787.94
2022-12-14T21:17:27.247Z,97797.63
2022-12-14T21:22:31.639Z,97795.00
2022-12-14T21:27:38.123Z,97793.44
2022-12-14T21:32:41.222Z,97799.09
2022-12-14T21:37:45.514Z,97797.38
2022-12-14T21:42:50.663Z,97803.63
2022-12-14T21:47:53.562Z,97803.75
2022-12-14T21:52:57.865Z,97811.50
2022-12-14T21:58:18.629Z,97821.28
2022-12-14T22:03:21.583Z,97817.84
2022-12-14T22:08:26.171Z,97823.75
2022-12-14T22:13:29.445Z,97830.13
2022-12-14T22:18:32.640Z,97829.28
2022-12-14T22:23:43.165Z,97836.59
2022-12-14T22:28:47.034Z,97830.06
2022-12-14T22:33:51.121Z,97837.63
2022-12-14T22:38:57.392Z,97830.81
2022-12-14T22:44:00.318Z,97838.38
2022-12-14T22:49:04.155Z,97852.81
2022-12-14T22:54:08.417Z,97850.91
2022-12-14T22:59:14.759Z,97852.00
2022-12-14T23:04:17.929Z,97855.09
2022-12-14T23:09:39.558Z,97865.34
2022-12-14T23:14:59.687Z,97863.06
2022-12-14T23:20:19.975Z,97864.25
2022-12-14T23:25:41.851Z,97864.38
2022-12-14T23:31:02.528Z,97862.13
2022-12-14T23:36:23.666Z,97854.34
2022-12-14T23:41:45.139Z,97851.91
2022-12-14T23:47:05.505Z,97849.88
2022-12-14T23:52:25.765Z,97855.34
2022-12-14T23:57:47.582Z,97859.81
